Zarechensk — ONGC — position and weather

sailwx.info

Track history (hours):
 
Tides and Currents Weather Stations Pressure Air Temp Water Temp Dewpoint Dewpoint Depression Visibility Wind Speed Wind Dir Waves Ship Positions

Zarechensk

Last reported at 2014-Aug-17 08:14 UTC. Time now 2014-Aug-21 06:19 UTC.
Position N 59°33' E 023°28'.

Length 180 m; draft 6.5 m.

MMSI: 205561000.

Date/timePositionNaut miles runAvg speedWind from/ knotsBaromVisibWave heightAir tempDewpointWater temp
2014-Aug-17 08:14N 59°33' E 023°28'30012.0
2014-Aug-16 07:12N 55°00' E 019°37'812.6
2014-Aug-16 06:34N 54°52' E 019°37'1110.8
2014-Aug-16 05:33N 54°42' E 019°44'7 7.2
2014-Aug-16 04:32N 54°38' E 019°55'0 0.0
2014-Aug-16 03:32N 54°38' E 019°55'0 0.0
2014-Aug-16 02:32N 54°38' E 019°55'0 0.0
2014-Aug-16 01:29N 54°38' E 019°55'0 0.0
2014-Aug-16 00:32N 54°38' E 019°55'0 0.0
2014-Aug-15 23:32N 54°38' E 019°55'0 0.0
2014-Aug-15 22:26N 54°38' E 019°55'0 0.0
2014-Aug-15 16:32N 54°38' E 019°55'0 0.0
2014-Aug-15 15:32N 54°38' E 019°55'0 0.0
2014-Aug-15 14:32N 54°38' E 019°55'0 0.0
2014-Aug-15 13:32N 54°38' E 019°55'0 0.0
2014-Aug-15 12:32N 54°38' E 019°55'0 0.0
2014-Aug-15 11:32N 54°38' E 019°55'0 0.0
2014-Aug-15 10:20N 54°38' E 019°55'0 0.0
2014-Aug-15 09:32N 54°38' E 019°55'0 0.0
2014-Aug-15 08:20N 54°38' E 019°55'0 0.3
2014-Aug-15 07:34N 54°38' E 019°55'5 5.1
2014-Aug-15 06:34N 54°40' E 019°46'1 0.7
2014-Aug-15 05:31N 54°39' E 019°46'0 0.0
2014-Aug-15 04:25N 54°39' E 019°46'0 0.0
2014-Aug-15 03:31N 54°39' E 019°46'0 0.0
2014-Aug-15 02:31N 54°39' E 019°46'0 0.0
2014-Aug-15 01:31N 54°39' E 019°46'0 0.0
2014-Aug-15 00:22N 54°39' E 019°46'0 0.0
2014-Aug-14 23:22N 54°39' E 019°46'0 0.0
2014-Aug-14 22:22N 54°39' E 019°46'0 0.0
2014-Aug-14 21:31N 54°39' E 019°46'0 0.0
2014-Aug-14 20:31N 54°39' E 019°46'0 0.0
2014-Aug-14 19:31N 54°39' E 019°46'0 0.0
2014-Aug-14 18:28N 54°39' E 019°46'0 0.0
2014-Aug-14 17:16N 54°39' E 019°46'0 0.0
2014-Aug-14 16:10N 54°39' E 019°46'1 2.2
2014-Aug-14 15:32N 54°40' E 019°46'8 8.1
2014-Aug-14 14:33N 54°45' E 019°35'1212.2
2014-Aug-14 13:34N 54°49' E 019°15'1212.1
2014-Aug-14 12:32N 54°54' E 018°55'1212.6
2014-Aug-14 11:34N 54°59' E 018°36'1312.5
2014-Aug-14 10:33N 55°02' E 018°15'9112.5
2014-Aug-14 03:17N 55°21' E 015°38'1013.9
2014-Aug-14 02:33N 55°23' E 015°21'1313.5
2014-Aug-14 01:33N 55°24' E 014°57'1312.5
2014-Aug-14 00:33N 55°21' E 014°36'1413.8
2014-Aug-13 23:34N 55°11' E 014°19'2713.0
2014-Aug-13 21:28N 55°12' E 013°31'1213.3
2014-Aug-13 20:33N 55°12' E 013°10'1312.9
2014-Aug-13 19:33N 55°16' E 012°48'1010.3
2014-Aug-13 18:33N 55°25' E 012°40'1212.0
2014-Aug-13 17:33N 55°37' E 012°42'1212.3
2014-Aug-13 16:33N 55°49' E 012°41'1212.0
2014-Aug-13 15:33N 56°01' E 012°38'1211.8
2014-Aug-13 14:33N 56°10' E 012°24'1313.4
2014-Aug-13 13:33N 56°17' E 012°04'1312.5
2014-Aug-13 12:33N 56°30' E 011°59'1312.6
2014-Aug-13 11:33N 56°42' E 011°53'1212.3
2014-Aug-13 10:33N 56°54' E 011°46'1312.5
2014-Aug-13 09:33N 57°05' E 011°38'1312.6
2014-Aug-13 08:33N 57°17' E 011°30'1212.3
2014-Aug-13 07:33N 57°29' E 011°22'1212.4
2014-Aug-13 06:33N 57°37' E 011°04'1312.6
2014-Aug-13 05:33N 57°46' E 010°47'1313.4
2014-Aug-13 04:33N 57°46' E 010°22'11013.1
2014-Aug-12 20:09N 56°32' E 007°51'6513.0
2014-Aug-12 15:07N 55°35' E 006°54'1213.0
2014-Aug-12 14:10N 55°25' E 006°41'1013.0
2014-Aug-12 13:24N 55°17' E 006°31'10212.8
2014-Aug-12 05:27N 53°52' E 004°54'1612.8
2014-Aug-12 04:14N 53°36' E 004°50'913.1
2014-Aug-12 03:33N 53°28' E 004°44'2712.4
2014-Aug-12 01:25N 53°04' E 004°25'1012.0
2014-Aug-12 00:33N 52°55' E 004°17'1211.6
2014-Aug-11 23:33N 52°45' E 004°06'1211.8
2014-Aug-11 22:33N 52°37' E 003°53'7412.4
2014-Aug-11 16:33N 51°42' E 002°32'1514.4
2014-Aug-11 15:32N 51°30' E 002°17'1414.7
2014-Aug-11 14:33N 51°18' E 002°07'1515.1
2014-Aug-11 13:33N 51°08' E 001°48'1616.5
2014-Aug-11 12:34N 50°56' E 001°30'3214.5
2014-Aug-11 10:24N 50°31' E 000°60'1214.4
2014-Aug-11 09:34N 50°27' E 000°42'1515.3
2014-Aug-11 08:33N 50°23' E 000°19'5714.0
2014-Aug-11 04:28N 50°08' W 001°08'  
2014-Aug-08 00:21N 37°40' W 010°09'  
Track history (hours):
 
Tides and Currents Weather Stations Pressure Air Temp Water Temp Dewpoint Dewpoint Depression Visibility Wind Speed Wind Dir Waves Ship Positions

Zarechensk

Last reported at 2014-Aug-17 08:14 UTC. Time now 2014-Aug-21 06:19 UTC.
Position N 59°33' E 023°28'.

Length 180 m; draft 6.5 m.

MMSI: 205561000.

Date/timePositionNaut miles runAvg speedWind from/ knotsBaromVisibWave heightAir tempDewpointWater temp
2014-Aug-17 08:14N 59°33' E 023°28'30012.0
2014-Aug-16 07:12N 55°00' E 019°37'812.6
2014-Aug-16 06:34N 54°52' E 019°37'1110.8
2014-Aug-16 05:33N 54°42' E 019°44'7 7.2
2014-Aug-16 04:32N 54°38' E 019°55'0 0.0
2014-Aug-16 03:32N 54°38' E 019°55'0 0.0
2014-Aug-16 02:32N 54°38' E 019°55'0 0.0
2014-Aug-16 01:29N 54°38' E 019°55'0 0.0
2014-Aug-16 00:32N 54°38' E 019°55'0 0.0
2014-Aug-15 23:32N 54°38' E 019°55'0 0.0
2014-Aug-15 22:26N 54°38' E 019°55'0 0.0
2014-Aug-15 16:32N 54°38' E 019°55'0 0.0
2014-Aug-15 15:32N 54°38' E 019°55'0 0.0
2014-Aug-15 14:32N 54°38' E 019°55'0 0.0
2014-Aug-15 13:32N 54°38' E 019°55'0 0.0
2014-Aug-15 12:32N 54°38' E 019°55'0 0.0
2014-Aug-15 11:32N 54°38' E 019°55'0 0.0
2014-Aug-15 10:20N 54°38' E 019°55'0 0.0
2014-Aug-15 09:32N 54°38' E 019°55'0 0.0
2014-Aug-15 08:20N 54°38' E 019°55'0 0.3
2014-Aug-15 07:34N 54°38' E 019°55'5 5.1
2014-Aug-15 06:34N 54°40' E 019°46'1 0.7
2014-Aug-15 05:31N 54°39' E 019°46'0 0.0
2014-Aug-15 04:25N 54°39' E 019°46'0 0.0
2014-Aug-15 03:31N 54°39' E 019°46'0 0.0
2014-Aug-15 02:31N 54°39' E 019°46'0 0.0
2014-Aug-15 01:31N 54°39' E 019°46'0 0.0
2014-Aug-15 00:22N 54°39' E 019°46'0 0.0
2014-Aug-14 23:22N 54°39' E 019°46'0 0.0
2014-Aug-14 22:22N 54°39' E 019°46'0 0.0
2014-Aug-14 21:31N 54°39' E 019°46'0 0.0
2014-Aug-14 20:31N 54°39' E 019°46'0 0.0
2014-Aug-14 19:31N 54°39' E 019°46'0 0.0
2014-Aug-14 18:28N 54°39' E 019°46'0 0.0
2014-Aug-14 17:16N 54°39' E 019°46'0 0.0
2014-Aug-14 16:10N 54°39' E 019°46'1 2.2
2014-Aug-14 15:32N 54°40' E 019°46'8 8.1
2014-Aug-14 14:33N 54°45' E 019°35'1212.2
2014-Aug-14 13:34N 54°49' E 019°15'1212.1
2014-Aug-14 12:32N 54°54' E 018°55'1212.6
2014-Aug-14 11:34N 54°59' E 018°36'1312.5
2014-Aug-14 10:33N 55°02' E 018°15'9112.5
2014-Aug-14 03:17N 55°21' E 015°38'1013.9
2014-Aug-14 02:33N 55°23' E 015°21'1313.5
2014-Aug-14 01:33N 55°24' E 014°57'1312.5
2014-Aug-14 00:33N 55°21' E 014°36'1413.8
2014-Aug-13 23:34N 55°11' E 014°19'2713.0
2014-Aug-13 21:28N 55°12' E 013°31'1213.3
2014-Aug-13 20:33N 55°12' E 013°10'1312.9
2014-Aug-13 19:33N 55°16' E 012°48'1010.3
2014-Aug-13 18:33N 55°25' E 012°40'1212.0
2014-Aug-13 17:33N 55°37' E 012°42'1212.3
2014-Aug-13 16:33N 55°49' E 012°41'1212.0
2014-Aug-13 15:33N 56°01' E 012°38'1211.8
2014-Aug-13 14:33N 56°10' E 012°24'1313.4
2014-Aug-13 13:33N 56°17' E 012°04'1312.5
2014-Aug-13 12:33N 56°30' E 011°59'1312.6
2014-Aug-13 11:33N 56°42' E 011°53'1212.3
2014-Aug-13 10:33N 56°54' E 011°46'1312.5
2014-Aug-13 09:33N 57°05' E 011°38'1312.6
2014-Aug-13 08:33N 57°17' E 011°30'1212.3
2014-Aug-13 07:33N 57°29' E 011°22'1212.4
2014-Aug-13 06:33N 57°37' E 011°04'1312.6
2014-Aug-13 05:33N 57°46' E 010°47'1313.4
2014-Aug-13 04:33N 57°46' E 010°22'11013.1
2014-Aug-12 20:09N 56°32' E 007°51'6513.0
2014-Aug-12 15:07N 55°35' E 006°54'1213.0
2014-Aug-12 14:10N 55°25' E 006°41'1013.0
2014-Aug-12 13:24N 55°17' E 006°31'10212.8
2014-Aug-12 05:27N 53°52' E 004°54'1612.8
2014-Aug-12 04:14N 53°36' E 004°50'913.1
2014-Aug-12 03:33N 53°28' E 004°44'2712.4
2014-Aug-12 01:25N 53°04' E 004°25'1012.0
2014-Aug-12 00:33N 52°55' E 004°17'1211.6
2014-Aug-11 23:33N 52°45' E 004°06'1211.8
2014-Aug-11 22:33N 52°37' E 003°53'7412.4
2014-Aug-11 16:33N 51°42' E 002°32'1514.4
2014-Aug-11 15:32N 51°30' E 002°17'1414.7
2014-Aug-11 14:33N 51°18' E 002°07'1515.1
2014-Aug-11 13:33N 51°08' E 001°48'1616.5
2014-Aug-11 12:34N 50°56' E 001°30'3214.5
2014-Aug-11 10:24N 50°31' E 000°60'1214.4
2014-Aug-11 09:34N 50°27' E 000°42'1515.3
2014-Aug-11 08:33N 50°23' E 000°19'5714.0
2014-Aug-11 04:28N 50°08' W 001°08'  
2014-Aug-08 00:21N 37°40' W 010°09'  

Dump ship's entire track history